NEW EXCHEQUER-LK MCCLURE (EXC)

Elevation: 879' · MERCED R basin · Operator: Merced Irrigation District

Provisional data, subject to change.
Query executed Tuesday at 0:44:39   clock

Select a sensor type for a plot of data.
Note: Reservoir Flows are daily averages.

Earlier

Date RES ELE    STORAGE    RES CHG    TOC STO    ABV TOC    OUTFLOW    INFLOW    PPT INC    TEMP MN    TEMP MX    TEMP AV   
 FEET   AF   AF   AF   AF   CFS   CFS   INCHES   DEG F   DEG F   DEG F  
08/02/2015 621.16 108440 -735 1024600 -916160 354 0 0.00 -- -- --
08/03/2015 620.90 108050 -495 1024600 -- 245 48 0.00 -- -- --
08/04/2015 620.68 107720 -435 1024600 -916880 209 43 0.00 -- -- --
08/05/2015 620.38 107270 -510 1024600 -917330 264 37 0.00 -- -- --
08/06/2015 620.07 106805 -584 1024600 -917795 313 79 0.00 -- -- --
08/07/2015 619.77 106378 -511 1024600 -918222 246 30 0.00 -- -- --
08/08/2015 619.55 106070 -392 1024600 -918530 199 43 0.00 -- -- --
08/09/2015 619.33 105762 -378 1024600 -918838 196 40 0.00 -- -- --
08/10/2015 619.06 105384 -448 1024600 -919216 217 26 0.00 -- -- --
08/11/2015 618.79 105006 -448 1024600 -919594 214 23 0.00 -- -- --
08/12/2015 618.45 104530 -532 1024600 -920070 248 8 0.00 -- -- --
08/13/2015 618.18 104152 -- 1024600 -920448 204 14 0.00 -- -- --
08/14/2015 617.87 103718 -518 1024600 -920882 229 10 0.00 -- -- --
08/15/2015 617.54 103256 -532 1024600 -921344 234 1 0.00 -- -- --
08/16/2015 617.17 102738 -532 1024600 -921862 210 0 0.00 -- -- --
08/17/2015 616.86 102304 -476 1024600 -922296 254 35 0.00 -- -- --
08/18/2015 616.57 101898 -462 1024600 -922702 202 0 0.00 -- -- --
08/19/2015 616.29 101506 -448 1024600 -923094 193 0 0.00 -- -- --
08/20/2015 616.03 101142 -434 1024600 -923458 174 0 0.00 -- -- --
08/21/2015 615.73 100722 -462 1024600 -923878 182 0 0.00 -- -- --
08/22/2015 615.43 100302 -420 1024600 -924298 185 0 0.00 -- -- --
08/23/2015 615.13 99882 -406 1024600 -924718 190 0 0.00 -- -- --
08/24/2015 614.93 99602 -336 1024600 -924998 165 24 0.00 -- -- --
08/25/2015 614.63 99182 -462 1024600 -925418 199 0 0.00 -- -- --
08/26/2015 614.29 98706 -504 1024600 -925894 192 0 0.00 -- -- --
08/27/2015 613.90 98160 -588 1024600 -926440 251 0 0.00 -- -- --
08/28/2015 613.46 97544 -616 1024600 -927056 256 0 0.00 -- -- --
08/29/2015 612.80 96620 -938 1024600 -927980 401 0 0.00 -- -- --
08/30/2015 612.39 96046 -602 1024600 -928554 252 0 0.00 -- -- --
08/31/2015 -- -- -- -- -- -- -- -- -- -- --
09/01/2015 -- -- -- -- -- -- -- -- -- -- --

Later | Latest

Warning! This data is preliminary and subject to revision.

Show EXC Map | Plot EXC Data | 1 Month EXC Data | Real-Time EXC Data | EXC Info